sensor_id;sensor_type;location;lat;lon;timestamp;temperature;humidity
20492;DHT22;10404;51.468;6.762;2023-12-14T00:02:00;7.20;87.80
20492;DHT22;10404;51.468;6.762;2023-12-14T00:04:25;7.20;87.90
20492;DHT22;10404;51.468;6.762;2023-12-14T00:06:51;7.20;87.80
20492;DHT22;10404;51.468;6.762;2023-12-14T00:09:16;7.20;87.70
20492;DHT22;10404;51.468;6.762;2023-12-14T00:11:42;7.20;87.80
20492;DHT22;10404;51.468;6.762;2023-12-14T00:14:07;7.20;87.70
20492;DHT22;10404;51.468;6.762;2023-12-14T00:16:33;7.20;87.70
20492;DHT22;10404;51.468;6.762;2023-12-14T00:18:59;7.20;87.80
20492;DHT22;10404;51.468;6.762;2023-12-14T00:21:24;7.20;87.80
20492;DHT22;10404;51.468;6.762;2023-12-14T00:23:50;7.20;87.80
20492;DHT22;10404;51.468;6.762;2023-12-14T00:26:15;7.20;87.70
20492;DHT22;10404;51.468;6.762;2023-12-14T00:28:42;7.20;87.70
20492;DHT22;10404;51.468;6.762;2023-12-14T00:31:08;7.20;87.70
20492;DHT22;10404;51.468;6.762;2023-12-14T00:33:33;7.10;87.70
20492;DHT22;10404;51.468;6.762;2023-12-14T00:35:59;7.20;87.70
20492;DHT22;10404;51.468;6.762;2023-12-14T00:38:24;7.10;87.70
20492;DHT22;10404;51.468;6.762;2023-12-14T00:40:50;7.10;87.70
20492;DHT22;10404;51.468;6.762;2023-12-14T00:43:15;7.10;87.70
20492;DHT22;10404;51.468;6.762;2023-12-14T00:45:41;7.10;87.70
20492;DHT22;10404;51.468;6.762;2023-12-14T00:48:07;7.10;87.70
20492;DHT22;10404;51.468;6.762;2023-12-14T00:50:32;7.10;87.70
20492;DHT22;10404;51.468;6.762;2023-12-14T00:52:58;7.10;87.70
20492;DHT22;10404;51.468;6.762;2023-12-14T00:55:23;7.10;87.70
20492;DHT22;10404;51.468;6.762;2023-12-14T00:57:49;7.10;87.60
20492;DHT22;10404;51.468;6.762;2023-12-14T01:00:15;7.10;87.70
20492;DHT22;10404;51.468;6.762;2023-12-14T01:02:41;7.10;87.60
20492;DHT22;10404;51.468;6.762;2023-12-14T01:05:06;7.10;87.70
20492;DHT22;10404;51.468;6.762;2023-12-14T01:07:32;7.10;87.60
20492;DHT22;10404;51.468;6.762;2023-12-14T01:09:58;7.10;87.60
20492;DHT22;10404;51.468;6.762;2023-12-14T01:12:23;7.10;87.50
20492;DHT22;10404;51.468;6.762;2023-12-14T01:14:49;7.00;87.60
20492;DHT22;10404;51.468;6.762;2023-12-14T01:17:14;7.10;87.60
20492;DHT22;10404;51.468;6.762;2023-12-14T01:19:40;7.00;87.50
20492;DHT22;10404;51.468;6.762;2023-12-14T01:22:06;7.00;87.70
20492;DHT22;10404;51.468;6.762;2023-12-14T01:24:32;7.00;87.60
20492;DHT22;10404;51.468;6.762;2023-12-14T01:26:57;7.00;87.60
20492;DHT22;10404;51.468;6.762;2023-12-14T01:29:23;7.00;87.60
20492;DHT22;10404;51.468;6.762;2023-12-14T01:31:49;7.00;87.50
20492;DHT22;10404;51.468;6.762;2023-12-14T01:34:14;7.00;87.60
20492;DHT22;10404;51.468;6.762;2023-12-14T01:36:41;7.00;87.60
20492;DHT22;10404;51.468;6.762;2023-12-14T01:39:06;7.00;87.60
20492;DHT22;10404;51.468;6.762;2023-12-14T01:41:32;7.00;87.60
20492;DHT22;10404;51.468;6.762;2023-12-14T01:43:57;7.00;87.60
20492;DHT22;10404;51.468;6.762;2023-12-14T01:46:23;7.00;87.70
20492;DHT22;10404;51.468;6.762;2023-12-14T01:48:48;7.00;87.50
20492;DHT22;10404;51.468;6.762;2023-12-14T01:51:14;7.00;87.60
20492;DHT22;10404;51.468;6.762;2023-12-14T01:53:40;7.00;87.60
20492;DHT22;10404;51.468;6.762;2023-12-14T01:56:06;7.00;87.50
20492;DHT22;10404;51.468;6.762;2023-12-14T01:58:32;7.00;87.60
20492;DHT22;10404;51.468;6.762;2023-12-14T02:01:19;7.00;87.50
20492;DHT22;10404;51.468;6.762;2023-12-14T02:03:50;7.00;87.50
20492;DHT22;10404;51.468;6.762;2023-12-14T02:06:17;7.00;87.50
20492;DHT22;10404;51.468;6.762;2023-12-14T02:08:43;7.00;87.60
20492;DHT22;10404;51.468;6.762;2023-12-14T02:11:08;7.00;87.50
20492;DHT22;10404;51.468;6.762;2023-12-14T02:13:34;7.00;87.40
20492;DHT22;10404;51.468;6.762;2023-12-14T02:16:00;7.00;87.40
20492;DHT22;10404;51.468;6.762;2023-12-14T02:18:25;6.90;87.40
20492;DHT22;10404;51.468;6.762;2023-12-14T02:20:52;6.90;87.30
20492;DHT22;10404;51.468;6.762;2023-12-14T02:23:17;6.90;87.50
20492;DHT22;10404;51.468;6.762;2023-12-14T02:25:43;6.90;87.50
20492;DHT22;10404;51.468;6.762;2023-12-14T02:28:08;6.90;87.50
20492;DHT22;10404;51.468;6.762;2023-12-14T02:30:34;6.90;87.50
20492;DHT22;10404;51.468;6.762;2023-12-14T02:32:59;6.90;87.50
20492;DHT22;10404;51.468;6.762;2023-12-14T02:35:25;6.90;87.50
20492;DHT22;10404;51.468;6.762;2023-12-14T02:37:51;6.90;87.40
20492;DHT22;10404;51.468;6.762;2023-12-14T02:40:16;6.90;87.30
20492;DHT22;10404;51.468;6.762;2023-12-14T02:42:42;6.90;87.40
20492;DHT22;10404;51.468;6.762;2023-12-14T02:45:08;6.90;87.40
20492;DHT22;10404;51.468;6.762;2023-12-14T02:47:34;6.90;87.30
20492;DHT22;10404;51.468;6.762;2023-12-14T02:49:59;6.90;87.30
20492;DHT22;10404;51.468;6.762;2023-12-14T02:52:25;6.90;87.40
20492;DHT22;10404;51.468;6.762;2023-12-14T02:54:51;6.90;87.30
20492;DHT22;10404;51.468;6.762;2023-12-14T02:57:16;6.90;87.30
20492;DHT22;10404;51.468;6.762;2023-12-14T02:59:42;6.80;87.20
20492;DHT22;10404;51.468;6.762;2023-12-14T03:02:08;6.80;87.20
20492;DHT22;10404;51.468;6.762;2023-12-14T03:04:34;6.80;87.20
20492;DHT22;10404;51.468;6.762;2023-12-14T03:07:02;6.80;87.20
20492;DHT22;10404;51.468;6.762;2023-12-14T03:09:31;6.80;87.30
20492;DHT22;10404;51.468;6.762;2023-12-14T03:11:57;6.80;87.20
20492;DHT22;10404;51.468;6.762;2023-12-14T03:14:23;6.80;87.30
20492;DHT22;10404;51.468;6.762;2023-12-14T03:16:48;6.80;87.20
20492;DHT22;10404;51.468;6.762;2023-12-14T03:19:14;6.80;87.20
20492;DHT22;10404;51.468;6.762;2023-12-14T03:21:44;6.80;87.20
20492;DHT22;10404;51.468;6.762;2023-12-14T03:24:09;6.80;87.10
20492;DHT22;10404;51.468;6.762;2023-12-14T03:26:38;6.80;87.10
20492;DHT22;10404;51.468;6.762;2023-12-14T03:29:04;6.80;87.10
20492;DHT22;10404;51.468;6.762;2023-12-14T03:31:29;6.70;87.10
20492;DHT22;10404;51.468;6.762;2023-12-14T03:33:55;6.70;87.10
20492;DHT22;10404;51.468;6.762;2023-12-14T03:36:20;6.70;87.00
20492;DHT22;10404;51.468;6.762;2023-12-14T03:38:48;6.70;87.10
20492;DHT22;10404;51.468;6.762;2023-12-14T03:41:13;6.70;87.10
20492;DHT22;10404;51.468;6.762;2023-12-14T03:43:39;6.70;87.00
20492;DHT22;10404;51.468;6.762;2023-12-14T03:46:04;6.70;87.10
20492;DHT22;10404;51.468;6.762;2023-12-14T03:48:32;6.70;87.10
20492;DHT22;10404;51.468;6.762;2023-12-14T03:50:57;6.70;87.10
20492;DHT22;10404;51.468;6.762;2023-12-14T03:53:23;6.70;87.10
20492;DHT22;10404;51.468;6.762;2023-12-14T03:55:48;6.70;87.00
20492;DHT22;10404;51.468;6.762;2023-12-14T03:58:14;6.70;87.10
20492;DHT22;10404;51.468;6.762;2023-12-14T04:00:39;6.70;87.00
20492;DHT22;10404;51.468;6.762;2023-12-14T04:03:05;6.70;87.10
20492;DHT22;10404;51.468;6.762;2023-12-14T04:05:30;6.60;87.10
20492;DHT22;10404;51.468;6.762;2023-12-14T04:07:56;6.60;87.00
20492;DHT22;10404;51.468;6.762;2023-12-14T04:10:21;6.60;87.00
20492;DHT22;10404;51.468;6.762;2023-12-14T04:12:47;6.60;87.00
20492;DHT22;10404;51.468;6.762;2023-12-14T04:15:12;6.60;87.10
20492;DHT22;10404;51.468;6.762;2023-12-14T04:17:38;6.60;87.00
20492;DHT22;10404;51.468;6.762;2023-12-14T04:20:04;6.60;87.10
20492;DHT22;10404;51.468;6.762;2023-12-14T04:22:31;6.60;87.00
20492;DHT22;10404;51.468;6.762;2023-12-14T04:24:57;6.60;87.10
20492;DHT22;10404;51.468;6.762;2023-12-14T04:27:22;6.60;87.00
20492;DHT22;10404;51.468;6.762;2023-12-14T04:29:52;6.60;87.00
20492;DHT22;10404;51.468;6.762;2023-12-14T04:32:17;6.60;87.00
20492;DHT22;10404;51.468;6.762;2023-12-14T04:34:43;6.60;87.10
20492;DHT22;10404;51.468;6.762;2023-12-14T04:37:09;6.60;87.10
20492;DHT22;10404;51.468;6.762;2023-12-14T04:39:34;6.60;87.10
20492;DHT22;10404;51.468;6.762;2023-12-14T04:42:00;6.60;87.00
20492;DHT22;10404;51.468;6.762;2023-12-14T04:44:25;6.50;87.00
20492;DHT22;10404;51.468;6.762;2023-12-14T04:46:51;6.50;87.00
20492;DHT22;10404;51.468;6.762;2023-12-14T04:49:16;6.50;87.00
20492;DHT22;10404;51.468;6.762;2023-12-14T04:51:42;6.50;86.90
20492;DHT22;10404;51.468;6.762;2023-12-14T04:54:08;6.50;86.90
20492;DHT22;10404;51.468;6.762;2023-12-14T04:56:34;6.50;86.80
20492;DHT22;10404;51.468;6.762;2023-12-14T04:59:00;6.50;86.80
20492;DHT22;10404;51.468;6.762;2023-12-14T05:01:25;6.50;86.90
20492;DHT22;10404;51.468;6.762;2023-12-14T05:03:54;6.50;86.90
20492;DHT22;10404;51.468;6.762;2023-12-14T05:06:20;6.40;86.90
20492;DHT22;10404;51.468;6.762;2023-12-14T05:08:46;6.40;87.00
20492;DHT22;10404;51.468;6.762;2023-12-14T05:11:13;6.40;86.90
20492;DHT22;10404;51.468;6.762;2023-12-14T05:13:39;6.50;86.80
20492;DHT22;10404;51.468;6.762;2023-12-14T05:16:05;6.40;86.80
20492;DHT22;10404;51.468;6.762;2023-12-14T05:18:30;6.40;86.80
20492;DHT22;10404;51.468;6.762;2023-12-14T05:20:56;6.40;86.80
20492;DHT22;10404;51.468;6.762;2023-12-14T05:23:21;6.40;86.80
20492;DHT22;10404;51.468;6.762;2023-12-14T05:25:47;6.40;86.80
20492;DHT22;10404;51.468;6.762;2023-12-14T05:28:13;6.40;86.80
20492;DHT22;10404;51.468;6.762;2023-12-14T05:30:38;6.40;86.80
20492;DHT22;10404;51.468;6.762;2023-12-14T05:33:04;6.40;86.80
20492;DHT22;10404;51.468;6.762;2023-12-14T05:35:29;6.40;86.80
20492;DHT22;10404;51.468;6.762;2023-12-14T05:37:56;6.40;86.80
20492;DHT22;10404;51.468;6.762;2023-12-14T05:40:21;6.40;86.80
20492;DHT22;10404;51.468;6.762;2023-12-14T05:42:47;6.40;86.80
20492;DHT22;10404;51.468;6.762;2023-12-14T05:45:12;6.30;86.80
20492;DHT22;10404;51.468;6.762;2023-12-14T05:47:38;6.40;86.80
20492;DHT22;10404;51.468;6.762;2023-12-14T05:50:04;6.30;86.80
20492;DHT22;10404;51.468;6.762;2023-12-14T05:52:33;6.30;86.80
20492;DHT22;10404;51.468;6.762;2023-12-14T05:54:58;6.30;86.70
20492;DHT22;10404;51.468;6.762;2023-12-14T05:57:24;6.30;86.80
20492;DHT22;10404;51.468;6.762;2023-12-14T05:59:51;6.30;86.80
20492;DHT22;10404;51.468;6.762;2023-12-14T06:02:16;6.30;86.70
20492;DHT22;10404;51.468;6.762;2023-12-14T06:04:42;6.30;86.70
20492;DHT22;10404;51.468;6.762;2023-12-14T06:07:08;6.30;86.80
20492;DHT22;10404;51.468;6.762;2023-12-14T06:09:34;6.30;86.80
20492;DHT22;10404;51.468;6.762;2023-12-14T06:12:04;6.30;86.60
20492;DHT22;10404;51.468;6.762;2023-12-14T06:14:30;6.30;86.60
20492;DHT22;10404;51.468;6.762;2023-12-14T06:16:58;6.30;86.70
20492;DHT22;10404;51.468;6.762;2023-12-14T06:19:23;6.30;86.70
20492;DHT22;10404;51.468;6.762;2023-12-14T06:21:50;6.30;86.60
20492;DHT22;10404;51.468;6.762;2023-12-14T06:24:15;6.20;86.70
20492;DHT22;10404;51.468;6.762;2023-12-14T06:26:42;6.20;86.70
20492;DHT22;10404;51.468;6.762;2023-12-14T06:29:09;6.30;86.80
20492;DHT22;10404;51.468;6.762;2023-12-14T06:31:34;6.20;86.70
20492;DHT22;10404;51.468;6.762;2023-12-14T06:34:00;6.20;86.60
20492;DHT22;10404;51.468;6.762;2023-12-14T06:36:28;6.20;86.70
20492;DHT22;10404;51.468;6.762;2023-12-14T06:38:55;6.20;86.70
20492;DHT22;10404;51.468;6.762;2023-12-14T06:41:21;6.20;86.70
20492;DHT22;10404;51.468;6.762;2023-12-14T06:43:48;6.20;86.60
20492;DHT22;10404;51.468;6.762;2023-12-14T06:46:14;6.20;86.60
20492;DHT22;10404;51.468;6.762;2023-12-14T06:48:40;6.20;86.60
20492;DHT22;10404;51.468;6.762;2023-12-14T06:51:06;6.20;86.60
20492;DHT22;10404;51.468;6.762;2023-12-14T06:53:35;6.20;86.70
20492;DHT22;10404;51.468;6.762;2023-12-14T06:56:03;6.20;86.60
20492;DHT22;10404;51.468;6.762;2023-12-14T06:58:28;6.10;86.60
20492;DHT22;10404;51.468;6.762;2023-12-14T07:00:54;6.10;86.60
20492;DHT22;10404;51.468;6.762;2023-12-14T07:03:20;6.10;86.60
20492;DHT22;10404;51.468;6.762;2023-12-14T07:05:45;6.10;86.60
20492;DHT22;10404;51.468;6.762;2023-12-14T07:08:11;6.10;86.60
20492;DHT22;10404;51.468;6.762;2023-12-14T07:10:36;6.10;86.60
20492;DHT22;10404;51.468;6.762;2023-12-14T07:13:02;6.10;86.50
20492;DHT22;10404;51.468;6.762;2023-12-14T07:15:27;6.10;86.60
20492;DHT22;10404;51.468;6.762;2023-12-14T07:17:53;6.10;86.40
20492;DHT22;10404;51.468;6.762;2023-12-14T07:20:19;6.10;86.60
20492;DHT22;10404;51.468;6.762;2023-12-14T07:22:44;6.10;86.50
20492;DHT22;10404;51.468;6.762;2023-12-14T07:25:10;6.10;86.60
20492;DHT22;10404;51.468;6.762;2023-12-14T07:27:35;6.10;86.50
20492;DHT22;10404;51.468;6.762;2023-12-14T07:30:01;6.10;86.60
20492;DHT22;10404;51.468;6.762;2023-12-14T07:32:26;6.10;86.60
20492;DHT22;10404;51.468;6.762;2023-12-14T07:34:52;6.10;86.50
20492;DHT22;10404;51.468;6.762;2023-12-14T07:37:18;6.00;86.50
20492;DHT22;10404;51.468;6.762;2023-12-14T07:39:43;6.00;86.60
20492;DHT22;10404;51.468;6.762;2023-12-14T07:42:09;6.00;86.60
20492;DHT22;10404;51.468;6.762;2023-12-14T07:44:34;6.00;86.50
20492;DHT22;10404;51.468;6.762;2023-12-14T07:47:01;6.00;86.50
20492;DHT22;10404;51.468;6.762;2023-12-14T07:49:27;6.00;86.50
20492;DHT22;10404;51.468;6.762;2023-12-14T07:51:53;6.00;86.50
20492;DHT22;10404;51.468;6.762;2023-12-14T07:54:18;6.00;86.40
20492;DHT22;10404;51.468;6.762;2023-12-14T07:56:44;6.00;86.40
20492;DHT22;10404;51.468;6.762;2023-12-14T07:59:10;6.00;86.50
20492;DHT22;10404;51.468;6.762;2023-12-14T08:01:36;6.00;86.60
20492;DHT22;10404;51.468;6.762;2023-12-14T08:04:02;5.90;86.40
20492;DHT22;10404;51.468;6.762;2023-12-14T08:06:28;5.90;86.50
20492;DHT22;10404;51.468;6.762;2023-12-14T08:08:54;5.90;86.50
20492;DHT22;10404;51.468;6.762;2023-12-14T08:11:20;5.90;86.40
20492;DHT22;10404;51.468;6.762;2023-12-14T08:13:45;5.90;86.50
20492;DHT22;10404;51.468;6.762;2023-12-14T08:16:12;5.90;86.40
20492;DHT22;10404;51.468;6.762;2023-12-14T08:18:38;5.90;86.40
20492;DHT22;10404;51.468;6.762;2023-12-14T08:21:04;5.90;86.50
20492;DHT22;10404;51.468;6.762;2023-12-14T08:23:29;5.90;86.40
20492;DHT22;10404;51.468;6.762;2023-12-14T08:25:55;5.90;86.50
20492;DHT22;10404;51.468;6.762;2023-12-14T08:28:25;5.90;86.40
20492;DHT22;10404;51.468;6.762;2023-12-14T08:30:54;5.90;86.40
20492;DHT22;10404;51.468;6.762;2023-12-14T08:33:20;5.90;86.30
20492;DHT22;10404;51.468;6.762;2023-12-14T08:35:46;5.90;86.40
20492;DHT22;10404;51.468;6.762;2023-12-14T08:38:11;5.90;86.40
20492;DHT22;10404;51.468;6.762;2023-12-14T08:40:37;5.90;86.30
20492;DHT22;10404;51.468;6.762;2023-12-14T08:43:03;5.90;86.30
20492;DHT22;10404;51.468;6.762;2023-12-14T08:45:29;5.90;86.30
20492;DHT22;10404;51.468;6.762;2023-12-14T08:47:54;5.90;86.30
20492;DHT22;10404;51.468;6.762;2023-12-14T08:50:20;5.80;86.40
20492;DHT22;10404;51.468;6.762;2023-12-14T08:52:46;5.80;86.40
20492;DHT22;10404;51.468;6.762;2023-12-14T08:55:12;5.90;86.30
20492;DHT22;10404;51.468;6.762;2023-12-14T08:57:38;5.90;86.30
20492;DHT22;10404;51.468;6.762;2023-12-14T09:00:05;5.80;86.30
20492;DHT22;10404;51.468;6.762;2023-12-14T09:02:32;5.80;86.30
20492;DHT22;10404;51.468;6.762;2023-12-14T09:04:58;5.80;86.20
20492;DHT22;10404;51.468;6.762;2023-12-14T09:07:23;5.80;86.30
20492;DHT22;10404;51.468;6.762;2023-12-14T09:09:49;5.80;86.30
20492;DHT22;10404;51.468;6.762;2023-12-14T09:12:14;5.80;86.30
20492;DHT22;10404;51.468;6.762;2023-12-14T09:14:40;5.80;86.20
20492;DHT22;10404;51.468;6.762;2023-12-14T09:17:05;5.80;86.30
20492;DHT22;10404;51.468;6.762;2023-12-14T09:19:31;5.80;86.30
20492;DHT22;10404;51.468;6.762;2023-12-14T09:21:57;5.80;86.20
20492;DHT22;10404;51.468;6.762;2023-12-14T09:24:23;5.80;86.20
20492;DHT22;10404;51.468;6.762;2023-12-14T09:26:48;5.80;86.30
20492;DHT22;10404;51.468;6.762;2023-12-14T09:29:14;5.80;86.20
20492;DHT22;10404;51.468;6.762;2023-12-14T09:31:45;5.80;86.30
20492;DHT22;10404;51.468;6.762;2023-12-14T09:34:11;5.70;86.30
20492;DHT22;10404;51.468;6.762;2023-12-14T09:36:39;5.70;86.20
20492;DHT22;10404;51.468;6.762;2023-12-14T09:39:05;5.80;86.20
20492;DHT22;10404;51.468;6.762;2023-12-14T09:41:31;5.70;86.30
20492;DHT22;10404;51.468;6.762;2023-12-14T09:43:56;5.70;86.30
20492;DHT22;10404;51.468;6.762;2023-12-14T09:46:25;5.70;86.20
20492;DHT22;10404;51.468;6.762;2023-12-14T09:48:52;5.70;86.20
20492;DHT22;10404;51.468;6.762;2023-12-14T09:51:19;5.70;86.20
20492;DHT22;10404;51.468;6.762;2023-12-14T09:53:45;5.70;86.30
20492;DHT22;10404;51.468;6.762;2023-12-14T09:56:10;5.70;86.20
20492;DHT22;10404;51.468;6.762;2023-12-14T09:58:36;5.70;86.20
20492;DHT22;10404;51.468;6.762;2023-12-14T10:01:02;5.70;86.30
20492;DHT22;10404;51.468;6.762;2023-12-14T10:03:30;5.70;86.30
20492;DHT22;10404;51.468;6.762;2023-12-14T10:05:58;5.70;86.20
20492;DHT22;10404;51.468;6.762;2023-12-14T10:08:25;5.70;86.20
20492;DHT22;10404;51.468;6.762;2023-12-14T10:10:52;5.70;86.20
20492;DHT22;10404;51.468;6.762;2023-12-14T10:13:19;5.70;86.30
20492;DHT22;10404;51.468;6.762;2023-12-14T10:15:46;5.70;86.20
20492;DHT22;10404;51.468;6.762;2023-12-14T10:18:24;5.70;86.30
20492;DHT22;10404;51.468;6.762;2023-12-14T10:20:50;5.70;86.20
20492;DHT22;10404;51.468;6.762;2023-12-14T10:23:17;5.70;86.20
20492;DHT22;10404;51.468;6.762;2023-12-14T10:25:43;5.70;86.20
20492;DHT22;10404;51.468;6.762;2023-12-14T10:28:14;5.70;86.20
20492;DHT22;10404;51.468;6.762;2023-12-14T10:30:41;5.70;86.30
20492;DHT22;10404;51.468;6.762;2023-12-14T10:33:07;5.70;86.20
20492;DHT22;10404;51.468;6.762;2023-12-14T10:35:33;5.70;86.30
20492;DHT22;10404;51.468;6.762;2023-12-14T10:38:02;5.70;86.20
20492;DHT22;10404;51.468;6.762;2023-12-14T10:40:28;5.70;86.30
20492;DHT22;10404;51.468;6.762;2023-12-14T10:42:55;5.60;86.20
20492;DHT22;10404;51.468;6.762;2023-12-14T10:45:28;5.70;86.20
20492;DHT22;10404;51.468;6.762;2023-12-14T10:47:55;5.70;86.30
20492;DHT22;10404;51.468;6.762;2023-12-14T10:50:23;5.70;86.20
20492;DHT22;10404;51.468;6.762;2023-12-14T10:52:50;5.60;86.30
20492;DHT22;10404;51.468;6.762;2023-12-14T10:57:46;5.60;86.30
20492;DHT22;10404;51.468;6.762;2023-12-14T11:00:12;5.60;86.30
20492;DHT22;10404;51.468;6.762;2023-12-14T11:02:40;5.70;86.30
20492;DHT22;10404;51.468;6.762;2023-12-14T11:05:08;5.60;86.30
20492;DHT22;10404;51.468;6.762;2023-12-14T11:07:47;5.70;86.20
20492;DHT22;10404;51.468;6.762;2023-12-14T11:10:14;5.60;86.20
20492;DHT22;10404;51.468;6.762;2023-12-14T11:13:06;5.60;86.20
20492;DHT22;10404;51.468;6.762;2023-12-14T11:15:35;5.60;86.20
20492;DHT22;10404;51.468;6.762;2023-12-14T11:23:12;5.60;86.30
20492;DHT22;10404;51.468;6.762;2023-12-14T11:25:43;5.60;86.20
20492;DHT22;10404;51.468;6.762;2023-12-14T11:28:09;5.60;86.30
20492;DHT22;10404;51.468;6.762;2023-12-14T11:30:38;5.60;86.30
20492;DHT22;10404;51.468;6.762;2023-12-14T11:33:04;5.60;86.40
20492;DHT22;10404;51.468;6.762;2023-12-14T11:35:29;5.60;86.40
20492;DHT22;10404;51.468;6.762;2023-12-14T11:37:56;5.60;86.30
20492;DHT22;10404;51.468;6.762;2023-12-14T11:40:27;5.60;86.40
20492;DHT22;10404;51.468;6.762;2023-12-14T11:43:01;5.60;86.40
20492;DHT22;10404;51.468;6.762;2023-12-14T11:45:28;5.60;86.30
20492;DHT22;10404;51.468;6.762;2023-12-14T11:47:54;5.60;86.20
20492;DHT22;10404;51.468;6.762;2023-12-14T11:50:20;5.60;86.40
20492;DHT22;10404;51.468;6.762;2023-12-14T11:52:45;5.60;86.30
20492;DHT22;10404;51.468;6.762;2023-12-14T11:55:11;5.60;86.40
20492;DHT22;10404;51.468;6.762;2023-12-14T11:57:37;5.60;86.40
20492;DHT22;10404;51.468;6.762;2023-12-14T12:00:04;5.60;86.40
20492;DHT22;10404;51.468;6.762;2023-12-14T12:02:30;5.60;86.40
20492;DHT22;10404;51.468;6.762;2023-12-14T12:04:55;5.50;86.40
20492;DHT22;10404;51.468;6.762;2023-12-14T12:07:21;5.50;86.20
20492;DHT22;10404;51.468;6.762;2023-12-14T12:09:47;5.50;86.30
20492;DHT22;10404;51.468;6.762;2023-12-14T12:12:12;5.50;86.40
20492;DHT22;10404;51.468;6.762;2023-12-14T12:14:39;5.50;86.40
20492;DHT22;10404;51.468;6.762;2023-12-14T12:17:06;5.50;86.20
20492;DHT22;10404;51.468;6.762;2023-12-14T12:19:33;5.50;86.30
20492;DHT22;10404;51.468;6.762;2023-12-14T12:21:58;5.50;86.30
20492;DHT22;10404;51.468;6.762;2023-12-14T12:24:24;5.50;86.30
20492;DHT22;10404;51.468;6.762;2023-12-14T12:26:49;5.60;86.30
20492;DHT22;10404;51.468;6.762;2023-12-14T12:29:15;5.50;86.30
20492;DHT22;10404;51.468;6.762;2023-12-14T12:31:41;5.50;86.40
20492;DHT22;10404;51.468;6.762;2023-12-14T12:34:08;5.50;86.30
20492;DHT22;10404;51.468;6.762;2023-12-14T12:36:34;5.50;86.20
20492;DHT22;10404;51.468;6.762;2023-12-14T12:38:59;5.50;86.20
20492;DHT22;10404;51.468;6.762;2023-12-14T12:41:25;5.50;86.30
20492;DHT22;10404;51.468;6.762;2023-12-14T12:43:50;5.50;86.40
20492;DHT22;10404;51.468;6.762;2023-12-14T12:46:16;5.50;86.20
20492;DHT22;10404;51.468;6.762;2023-12-14T12:48:41;5.50;86.20
20492;DHT22;10404;51.468;6.762;2023-12-14T12:51:07;5.50;86.20
20492;DHT22;10404;51.468;6.762;2023-12-14T12:53:33;5.50;86.20
20492;DHT22;10404;51.468;6.762;2023-12-14T12:55:58;5.50;86.20
20492;DHT22;10404;51.468;6.762;2023-12-14T12:58:24;5.50;86.20
20492;DHT22;10404;51.468;6.762;2023-12-14T13:00:50;5.50;86.20
20492;DHT22;10404;51.468;6.762;2023-12-14T13:03:15;5.50;86.20
20492;DHT22;10404;51.468;6.762;2023-12-14T13:05:41;5.50;86.20
20492;DHT22;10404;51.468;6.762;2023-12-14T13:08:07;5.50;86.20
20492;DHT22;10404;51.468;6.762;2023-12-14T13:10:33;5.50;86.20
20492;DHT22;10404;51.468;6.762;2023-12-14T13:12:58;5.50;86.30
20492;DHT22;10404;51.468;6.762;2023-12-14T13:15:24;5.50;86.30
20492;DHT22;10404;51.468;6.762;2023-12-14T13:17:50;5.50;86.20
20492;DHT22;10404;51.468;6.762;2023-12-14T13:20:16;5.50;86.10
20492;DHT22;10404;51.468;6.762;2023-12-14T13:22:43;5.50;86.20
20492;DHT22;10404;51.468;6.762;2023-12-14T13:25:09;5.50;86.20
20492;DHT22;10404;51.468;6.762;2023-12-14T13:27:34;5.50;86.30
20492;DHT22;10404;51.468;6.762;2023-12-14T13:30:04;5.50;86.20
20492;DHT22;10404;51.468;6.762;2023-12-14T13:32:31;5.50;86.20
20492;DHT22;10404;51.468;6.762;2023-12-14T13:34:56;5.50;86.20
20492;DHT22;10404;51.468;6.762;2023-12-14T13:37:22;5.50;86.20
20492;DHT22;10404;51.468;6.762;2023-12-14T13:39:47;5.50;86.20
20492;DHT22;10404;51.468;6.762;2023-12-14T13:42:14;5.50;86.20
20492;DHT22;10404;51.468;6.762;2023-12-14T13:44:41;5.50;86.20
20492;DHT22;10404;51.468;6.762;2023-12-14T13:47:07;5.50;86.20
20492;DHT22;10404;51.468;6.762;2023-12-14T13:49:33;5.50;86.20
20492;DHT22;10404;51.468;6.762;2023-12-14T13:51:58;5.50;86.10
20492;DHT22;10404;51.468;6.762;2023-12-14T13:54:24;5.40;86.10
20492;DHT22;10404;51.468;6.762;2023-12-14T13:56:49;5.50;86.10
20492;DHT22;10404;51.468;6.762;2023-12-14T13:59:15;5.50;86.20
20492;DHT22;10404;51.468;6.762;2023-12-14T14:01:41;5.40;86.10
20492;DHT22;10404;51.468;6.762;2023-12-14T14:04:06;5.40;86.10
20492;DHT22;10404;51.468;6.762;2023-12-14T14:06:32;5.40;86.10
20492;DHT22;10404;51.468;6.762;2023-12-14T14:08:57;5.40;86.10
20492;DHT22;10404;51.468;6.762;2023-12-14T14:11:23;5.40;86.10
20492;DHT22;10404;51.468;6.762;2023-12-14T14:13:49;5.30;86.10
20492;DHT22;10404;51.468;6.762;2023-12-14T14:16:14;5.30;86.00
20492;DHT22;10404;51.468;6.762;2023-12-14T14:18:40;5.30;86.10
20492;DHT22;10404;51.468;6.762;2023-12-14T14:21:06;5.30;86.10
20492;DHT22;10404;51.468;6.762;2023-12-14T14:23:36;5.30;86.10
20492;DHT22;10404;51.468;6.762;2023-12-14T14:26:02;5.30;86.00
20492;DHT22;10404;51.468;6.762;2023-12-14T14:28:28;5.30;86.10
20492;DHT22;10404;51.468;6.762;2023-12-14T14:30:54;5.30;86.10
20492;DHT22;10404;51.468;6.762;2023-12-14T14:33:19;5.30;86.00
20492;DHT22;10404;51.468;6.762;2023-12-14T14:35:45;5.30;85.90
20492;DHT22;10404;51.468;6.762;2023-12-14T14:38:14;5.30;85.90
20492;DHT22;10404;51.468;6.762;2023-12-14T14:40:41;5.30;85.90
20492;DHT22;10404;51.468;6.762;2023-12-14T14:43:07;5.30;85.90
20492;DHT22;10404;51.468;6.762;2023-12-14T14:45:33;5.30;86.00
20492;DHT22;10404;51.468;6.762;2023-12-14T14:47:59;5.30;86.00
20492;DHT22;10404;51.468;6.762;2023-12-14T14:50:24;5.30;86.00
20492;DHT22;10404;51.468;6.762;2023-12-14T14:52:50;5.30;86.10
20492;DHT22;10404;51.468;6.762;2023-12-14T14:55:15;5.20;86.10
20492;DHT22;10404;51.468;6.762;2023-12-14T14:57:44;5.30;86.10
20492;DHT22;10404;51.468;6.762;2023-12-14T15:00:09;5.30;86.10
20492;DHT22;10404;51.468;6.762;2023-12-14T15:02:35;5.20;86.10
20492;DHT22;10404;51.468;6.762;2023-12-14T15:05:01;5.30;86.10
20492;DHT22;10404;51.468;6.762;2023-12-14T15:07:26;5.20;86.10
20492;DHT22;10404;51.468;6.762;2023-12-14T15:09:54;5.20;86.10
20492;DHT22;10404;51.468;6.762;2023-12-14T15:12:19;5.20;86.00
20492;DHT22;10404;51.468;6.762;2023-12-14T15:14:45;5.20;86.00
20492;DHT22;10404;51.468;6.762;2023-12-14T15:17:12;5.20;86.10
20492;DHT22;10404;51.468;6.762;2023-12-14T15:19:38;5.20;86.10
20492;DHT22;10404;51.468;6.762;2023-12-14T15:22:04;5.20;86.00
20492;DHT22;10404;51.468;6.762;2023-12-14T15:24:30;5.10;86.00
20492;DHT22;10404;51.468;6.762;2023-12-14T15:26:55;5.10;86.00
20492;DHT22;10404;51.468;6.762;2023-12-14T15:29:21;5.10;86.00
20492;DHT22;10404;51.468;6.762;2023-12-14T15:31:47;5.10;85.90
20492;DHT22;10404;51.468;6.762;2023-12-14T15:34:14;5.10;85.90
20492;DHT22;10404;51.468;6.762;2023-12-14T15:36:40;5.10;86.00
20492;DHT22;10404;51.468;6.762;2023-12-14T15:39:05;5.10;86.00
20492;DHT22;10404;51.468;6.762;2023-12-14T15:41:31;5.10;86.00
20492;DHT22;10404;51.468;6.762;2023-12-14T15:43:56;5.10;86.00
20492;DHT22;10404;51.468;6.762;2023-12-14T15:46:22;5.10;86.10